Time;durP1;ratioP1;P1;durP2;ratioP2;P2;SDS_P1;SDS_P2;PMS_P1;PMS_P2;Temp;Humidity;BMP_temperature;BMP_pressure;BME280_temperature;BME280_humidity;BME280_pressure;Samples;Min_cycle;Max_cycle;Signal;HPM_P1;HPM_P2
2021/12/28 00:00:59;;;;;;;61.00;4.00;;;;;;;;;;5134900;27;20513;-66
2021/12/28 00:03:26;;;;;;;64.30;3.63;;;;;;;;;;5135011;27;20606;-64
2021/12/28 00:05:54;;;;;;;59.30;3.23;;;;;;;;;;5134730;27;20552;-65
2021/12/28 00:08:22;;;;;;;66.00;3.90;;;;;;;;;;5134434;27;20480;-65
2021/12/28 00:10:49;;;;;;;58.97;3.43;;;;;;;;;;5134986;27;20477;-65
2021/12/28 00:13:17;;;;;;;60.03;3.70;;;;;;;;;;5134609;27;20992;-65
2021/12/28 00:15:50;;;;;;;61.83;3.88;;;;;;;;;;5134599;27;20501;-64
2021/12/28 00:18:18;;;;;;;60.47;3.80;;;;;;;;;;5134439;27;20199;-65
2021/12/28 00:20:46;;;;;;;61.00;3.47;;;;;;;;;;5134462;27;20551;-66
2021/12/28 00:23:18;;;;;;;60.30;3.77;;;;;;;;;;5134486;27;20455;-64
2021/12/28 00:25:46;;;;;;;61.33;3.42;;;;;;;;;;5134688;27;20864;-65
2021/12/28 00:28:13;;;;;;;59.72;3.90;;;;;;;;;;5134255;27;20669;-65
2021/12/28 00:30:41;;;;;;;60.60;3.80;;;;;;;;;;5134412;27;20223;-64
2021/12/28 00:33:08;;;;;;;60.53;3.60;;;;;;;;;;5134245;27;20449;-64
2021/12/28 00:35:36;;;;;;;62.28;3.50;;;;;;;;;;5134057;27;20299;-66
2021/12/28 00:38:04;;;;;;;60.83;3.70;;;;;;;;;;5134122;27;20221;-65
2021/12/28 00:40:33;;;;;;;61.50;3.70;;;;;;;;;;5134197;27;20972;-65
2021/12/28 00:43:00;;;;;;;60.13;3.50;;;;;;;;;;5134201;27;20556;-65
2021/12/28 00:45:28;;;;;;;65.85;3.70;;;;;;;;;;5134118;27;20447;-66
2021/12/28 00:47:56;;;;;;;60.90;3.40;;;;;;;;;;5133383;27;20215;-67
2021/12/28 00:50:23;;;;;;;70.30;4.90;;;;;;;;;;5133517;27;20488;-65
2021/12/28 00:52:50;;;;;;;60.10;3.55;;;;;;;;;;5133833;27;20199;-65
2021/12/28 00:55:19;;;;;;;64.47;4.40;;;;;;;;;;5133967;27;20290;-66
2021/12/28 00:57:48;;;;;;;61.20;3.77;;;;;;;;;;5133596;27;20441;-65
2021/12/28 01:00:16;;;;;;;60.70;3.83;;;;;;;;;;5133739;27;20483;-65
2021/12/28 01:02:43;;;;;;;63.07;3.80;;;;;;;;;;5133515;27;20717;-67
2021/12/28 01:05:11;;;;;;;59.13;3.23;;;;;;;;;;5133653;27;20461;-64
2021/12/28 01:07:38;;;;;;;59.92;3.50;;;;;;;;;;5133384;27;20485;-66
2021/12/28 01:10:07;;;;;;;60.33;3.60;;;;;;;;;;5133524;27;20310;-66
2021/12/28 01:12:34;;;;;;;60.45;3.45;;;;;;;;;;5133503;27;20294;-66
2021/12/28 01:15:03;;;;;;;62.13;4.20;;;;;;;;;;5133446;27;20210;-65
2021/12/28 01:17:30;;;;;;;62.47;3.45;;;;;;;;;;5133353;27;20199;-67
2021/12/28 01:19:57;;;;;;;65.55;3.83;;;;;;;;;;5133537;27;20210;-64
2021/12/28 01:22:24;;;;;;;61.83;3.40;;;;;;;;;;5133614;27;20577;-65
2021/12/28 01:24:51;;;;;;;59.00;3.25;;;;;;;;;;5133427;27;20203;-65
2021/12/28 01:27:19;;;;;;;59.70;3.15;;;;;;;;;;5132978;27;20203;-66
2021/12/28 01:29:46;;;;;;;59.45;3.75;;;;;;;;;;5133101;27;20691;-65
2021/12/28 01:32:14;;;;;;;64.28;3.35;;;;;;;;;;5133072;27;20299;-64
2021/12/28 01:34:43;;;;;;;61.35;3.20;;;;;;;;;;5133362;27;20331;-65
2021/12/28 01:37:10;;;;;;;65.03;3.38;;;;;;;;;;5132977;27;20207;-65
2021/12/28 01:39:38;;;;;;;61.58;3.90;;;;;;;;;;5133097;27;20222;-65
2021/12/28 01:42:07;;;;;;;64.78;3.90;;;;;;;;;;5133018;27;20224;-65
2021/12/28 01:44:34;;;;;;;61.72;3.17;;;;;;;;;;5132879;27;20267;-64
2021/12/28 01:47:01;;;;;;;61.05;3.70;;;;;;;;;;5133040;27;20579;-65
2021/12/28 01:49:30;;;;;;;59.80;3.50;;;;;;;;;;5132840;27;20228;-64
2021/12/28 01:51:58;;;;;;;62.17;3.83;;;;;;;;;;5132956;27;20318;-65
2021/12/28 01:54:25;;;;;;;62.72;3.28;;;;;;;;;;5132688;27;20683;-66
2021/12/28 01:56:52;;;;;;;59.95;3.35;;;;;;;;;;5132788;27;20581;-65
2021/12/28 01:59:22;;;;;;;58.78;3.30;;;;;;;;;;5132667;27;20199;-65
2021/12/28 02:01:49;;;;;;;60.22;3.40;;;;;;;;;;5133042;27;20322;-64
2021/12/28 02:04:17;;;;;;;62.55;3.70;;;;;;;;;;5132725;27;20226;-64
2021/12/28 02:06:46;;;;;;;61.45;3.75;;;;;;;;;;5132812;27;20199;-64
2021/12/28 02:09:13;;;;;;;65.95;3.60;;;;;;;;;;5132373;27;20219;-64
2021/12/28 02:11:41;;;;;;;61.45;3.25;;;;;;;;;;5132931;27;20227;-65
2021/12/28 02:14:09;;;;;;;59.70;3.13;;;;;;;;;;5132734;27;20299;-65
2021/12/28 02:16:37;;;;;;;62.72;3.50;;;;;;;;;;5132821;27;20505;-65
2021/12/28 02:19:05;;;;;;;60.72;3.40;;;;;;;;;;5132469;27;20286;-65
2021/12/28 02:21:33;;;;;;;60.00;3.85;;;;;;;;;;5132573;27;20223;-65
2021/12/28 02:24:01;;;;;;;62.70;3.72;;;;;;;;;;5132396;27;20204;-64
2021/12/28 02:26:28;;;;;;;60.90;3.90;;;;;;;;;;5132896;27;20302;-66
2021/12/28 02:28:55;;;;;;;61.13;3.67;;;;;;;;;;5132231;27;20227;-64
2021/12/28 02:31:23;;;;;;;63.63;3.58;;;;;;;;;;5132561;27;20465;-65
2021/12/28 02:33:50;;;;;;;60.35;3.60;;;;;;;;;;5132439;27;20214;-65
2021/12/28 02:36:18;;;;;;;63.85;3.38;;;;;;;;;;5132368;27;20211;-65
2021/12/28 02:38:47;;;;;;;65.40;3.20;;;;;;;;;;5132390;27;20207;-64
2021/12/28 02:41:14;;;;;;;59.88;2.97;;;;;;;;;;5132294;27;20219;-66
2021/12/28 02:43:42;;;;;;;65.80;3.80;;;;;;;;;;5132259;27;20295;-64
2021/12/28 02:46:10;;;;;;;64.93;3.90;;;;;;;;;;5132418;27;20294;-64
2021/12/28 02:48:38;;;;;;;61.63;4.20;;;;;;;;;;5131985;27;20733;-65
2021/12/28 02:51:07;;;;;;;66.78;4.43;;;;;;;;;;5132160;27;20219;-64
2021/12/28 02:53:34;;;;;;;67.40;4.32;;;;;;;;;;5132464;27;20207;-64
2021/12/28 02:56:03;;;;;;;60.17;3.60;;;;;;;;;;5132225;27;20214;-64
2021/12/28 02:58:32;;;;;;;60.88;3.88;;;;;;;;;;5131894;27;20667;-64
2021/12/28 03:01:01;;;;;;;62.75;4.70;;;;;;;;;;5130785;27;20239;-65
2021/12/28 03:03:29;;;;;;;62.00;4.57;;;;;;;;;;5132327;27;20294;-64
2021/12/28 03:05:58;;;;;;;63.25;4.07;;;;;;;;;;5132174;27;20330;-65
2021/12/28 03:08:27;;;;;;;62.25;3.97;;;;;;;;;;5131880;27;20219;-65
2021/12/28 03:10:55;;;;;;;63.05;3.90;;;;;;;;;;5132234;27;20231;-64
2021/12/28 03:13:25;;;;;;;63.47;3.72;;;;;;;;;;5134850;27;20207;-65
2021/12/28 03:15:53;;;;;;;62.08;3.15;;;;;;;;;;5136122;27;20203;-64
2021/12/28 03:18:20;;;;;;;65.73;3.90;;;;;;;;;;5135722;27;20199;-64
2021/12/28 03:20:48;;;;;;;65.88;3.70;;;;;;;;;;5135743;27;20476;-66
2021/12/28 03:23:15;;;;;;;63.08;3.92;;;;;;;;;;5135734;27;20751;-64
2021/12/28 03:25:42;;;;;;;65.90;3.70;;;;;;;;;;5135652;27;20294;-66
2021/12/28 03:28:10;;;;;;;68.82;4.10;;;;;;;;;;5135682;27;20488;-65
2021/12/28 03:30:39;;;;;;;70.97;3.92;;;;;;;;;;5135482;27;20314;-64
2021/12/28 03:33:06;;;;;;;61.28;3.08;;;;;;;;;;5135588;27;20644;-65
2021/12/28 03:35:33;;;;;;;64.53;3.77;;;;;;;;;;5135407;27;20674;-65
2021/12/28 03:38:00;;;;;;;60.80;3.28;;;;;;;;;;5135120;27;20541;-65
2021/12/28 03:40:27;;;;;;;60.50;3.60;;;;;;;;;;5135229;27;20224;-64
2021/12/28 03:42:54;;;;;;;63.70;3.63;;;;;;;;;;5135503;27;20447;-65
2021/12/28 03:45:21;;;;;;;69.82;3.78;;;;;;;;;;5135466;27;20786;-64
2021/12/28 03:47:50;;;;;;;59.83;3.50;;;;;;;;;;5134894;27;20211;-65
2021/12/28 03:50:19;;;;;;;64.15;4.03;;;;;;;;;;5135209;27;20310;-64
2021/12/28 03:52:46;;;;;;;60.90;3.35;;;;;;;;;;5135367;27;20199;-65
2021/12/28 03:55:13;;;;;;;66.33;4.33;;;;;;;;;;5135028;27;20208;-65
2021/12/28 03:57:40;;;;;;;61.95;3.85;;;;;;;;;;5134735;27;20964;-66
2021/12/28 04:00:09;;;;;;;62.70;3.95;;;;;;;;;;5135083;27;20215;-65
2021/12/28 04:02:36;;;;;;;59.60;3.50;;;;;;;;;;5134971;27;20290;-64
2021/12/28 04:05:04;;;;;;;60.90;3.53;;;;;;;;;;5134860;27;20218;-65
2021/12/28 04:07:32;;;;;;;59.30;3.50;;;;;;;;;;5134410;27;20663;-65
2021/12/28 04:10:02;;;;;;;60.50;3.30;;;;;;;;;;5134560;27;20255;-65
2021/12/28 04:12:29;;;;;;;69.93;4.32;;;;;;;;;;5134596;27;20299;-65
2021/12/28 04:14:56;;;;;;;65.88;3.70;;;;;;;;;;5134969;27;20203;-64
2021/12/28 04:17:24;;;;;;;60.63;3.70;;;;;;;;;;5134330;27;20260;-65
2021/12/28 04:19:51;;;;;;;61.63;3.75;;;;;;;;;;5134468;27;20290;-65
2021/12/28 04:22:20;;;;;;;60.67;3.63;;;;;;;;;;5134422;27;20204;-64
2021/12/28 04:24:48;;;;;;;63.90;3.65;;;;;;;;;;5134493;27;20199;-65
2021/12/28 04:27:15;;;;;;;60.37;3.77;;;;;;;;;;5134348;27;20203;-65
2021/12/28 04:29:42;;;;;;;64.20;3.50;;;;;;;;;;5134456;27;20823;-64
2021/12/28 04:32:10;;;;;;;63.35;3.97;;;;;;;;;;5134260;27;20473;-65
2021/12/28 04:34:37;;;;;;;70.03;5.40;;;;;;;;;;5134147;27;20290;-65
2021/12/28 04:37:05;;;;;;;60.17;3.77;;;;;;;;;;5134457;27;20438;-64
2021/12/28 04:39:33;;;;;;;61.92;4.10;;;;;;;;;;5134233;27;20441;-65
2021/12/28 04:42:00;;;;;;;59.77;3.60;;;;;;;;;;5134198;27;20230;-65
2021/12/28 04:44:27;;;;;;;63.03;3.60;;;;;;;;;;5134507;27;20456;-66
2021/12/28 04:46:55;;;;;;;61.65;3.60;;;;;;;;;;5134046;27;20532;-65
2021/12/28 04:49:25;;;;;;;70.53;4.10;;;;;;;;;;5133969;27;20310;-65
2021/12/28 04:51:52;;;;;;;60.60;3.57;;;;;;;;;;5133781;27;20465;-66
2021/12/28 04:54:19;;;;;;;61.90;4.10;;;;;;;;;;5133737;27;20532;-65
2021/12/28 04:56:48;;;;;;;60.50;3.60;;;;;;;;;;5134322;27;20231;-65
2021/12/28 04:59:16;;;;;;;58.87;3.30;;;;;;;;;;5133560;27;20484;-65
2021/12/28 05:01:43;;;;;;;60.67;3.70;;;;;;;;;;5133621;27;20461;-65
2021/12/28 05:04:10;;;;;;;61.40;3.30;;;;;;;;;;5133748;27;20453;-66
2021/12/28 05:06:38;;;;;;;60.97;3.67;;;;;;;;;;5133849;27;20294;-65
2021/12/28 05:09:06;;;;;;;61.37;4.37;;;;;;;;;;5133431;27;20225;-65
2021/12/28 05:11:34;;;;;;;61.77;3.50;;;;;;;;;;5133538;27;20467;-65
2021/12/28 05:14:04;;;;;;;61.65;4.80;;;;;;;;;;5133463;27;20885;-65
2021/12/28 05:16:33;;;;;;;61.50;3.60;;;;;;;;;;5133785;27;20299;-65
2021/12/28 05:19:00;;;;;;;63.17;4.68;;;;;;;;;;5133395;27;20245;-65
2021/12/28 05:21:27;;;;;;;61.13;3.57;;;;;;;;;;5133489;27;20310;-64
2021/12/28 05:23:55;;;;;;;59.75;4.28;;;;;;;;;;5133243;27;20454;-64
2021/12/28 05:26:22;;;;;;;63.03;4.20;;;;;;;;;;5133312;27;20204;-64
2021/12/28 05:28:49;;;;;;;62.05;3.72;;;;;;;;;;5132837;27;21125;-65
2021/12/28 05:31:18;;;;;;;62.00;3.95;;;;;;;;;;5133394;27;20228;-65
2021/12/28 05:33:45;;;;;;;60.30;4.17;;;;;;;;;;5133322;27;20213;-66
2021/12/28 05:36:13;;;;;;;61.25;3.97;;;;;;;;;;5132720;27;20451;-66
2021/12/28 05:38:40;;;;;;;64.00;3.60;;;;;;;;;;5132892;27;20203;-65
2021/12/28 05:41:07;;;;;;;62.17;4.20;;;;;;;;;;5133001;27;20473;-66
2021/12/28 05:43:34;;;;;;;63.73;3.97;;;;;;;;;;5133207;27;20445;-65
2021/12/28 05:46:02;;;;;;;60.75;3.97;;;;;;;;;;5133231;27;20452;-66
2021/12/28 05:48:30;;;;;;;63.30;3.75;;;;;;;;;;5132773;27;20214;-66
2021/12/28 05:50:58;;;;;;;62.45;3.65;;;;;;;;;;5132962;27;20314;-65
2021/12/28 05:53:25;;;;;;;60.77;3.40;;;;;;;;;;5132821;27;20766;-65
2021/12/28 05:55:52;;;;;;;60.90;3.97;;;;;;;;;;5132071;27;20445;-65
2021/12/28 05:58:19;;;;;;;60.58;3.90;;;;;;;;;;5132821;27;20533;-66
2021/12/28 06:00:46;;;;;;;61.00;3.50;;;;;;;;;;5133098;27;20219;-65
2021/12/28 06:03:13;;;;;;;64.70;4.10;;;;;;;;;;5132931;27;20441;-65
2021/12/28 06:05:42;;;;;;;60.03;3.43;;;;;;;;;;5132777;27;20457;-65
2021/12/28 06:08:09;;;;;;;62.80;3.40;;;;;;;;;;5132493;27;20821;-65
2021/12/28 06:10:36;;;;;;;61.13;4.55;;;;;;;;;;5132869;27;20228;-66
2021/12/28 06:13:03;;;;;;;62.17;4.90;;;;;;;;;;5132991;27;20302;-65
2021/12/28 06:15:31;;;;;;;65.05;4.97;;;;;;;;;;5132619;27;20215;-65
2021/12/28 06:17:58;;;;;;;61.90;4.73;;;;;;;;;;5132126;27;20234;-66
2021/12/28 06:20:25;;;;;;;59.93;4.40;;;;;;;;;;5132718;27;20461;-64
2021/12/28 06:22:53;;;;;;;61.47;4.50;;;;;;;;;;5132639;27;20871;-65
2021/12/28 06:25:21;;;;;;;60.00;4.13;;;;;;;;;;5132898;27;20528;-64
2021/12/28 06:27:48;;;;;;;59.47;4.10;;;;;;;;;;5132678;27;20828;-65
2021/12/28 06:30:15;;;;;;;63.20;4.43;;;;;;;;;;5135656;27;20579;-64
2021/12/28 06:32:42;;;;;;;61.10;4.17;;;;;;;;;;5135772;27;20467;-65
2021/12/28 06:35:10;;;;;;;62.60;4.30;;;;;;;;;;5136146;27;20441;-64
2021/12/28 06:37:38;;;;;;;63.10;4.57;;;;;;;;;;5136195;27;20451;-64
2021/12/28 06:40:07;;;;;;;65.10;4.70;;;;;;;;;;5136806;27;20463;-64
2021/12/28 06:42:35;;;;;;;60.53;3.73;;;;;;;;;;5135537;27;20217;-64
2021/12/28 06:45:02;;;;;;;60.28;3.45;;;;;;;;;;5132485;27;20536;-63
2021/12/28 06:47:30;;;;;;;60.15;3.50;;;;;;;;;;5133892;27;20203;-63
2021/12/28 06:49:57;;;;;;;60.57;3.90;;;;;;;;;;5136177;27;20310;-63
2021/12/28 06:52:24;;;;;;;62.10;4.27;;;;;;;;;;5136610;27;20438;-64
2021/12/28 06:54:51;;;;;;;58.50;3.53;;;;;;;;;;5136479;27;20451;-63
2021/12/28 06:57:21;;;;;;;63.20;4.20;;;;;;;;;;5136009;27;20956;-66
2021/12/28 06:59:48;;;;;;;58.40;3.30;;;;;;;;;;5136156;27;20448;-64
2021/12/28 07:02:16;;;;;;;60.22;3.88;;;;;;;;;;5136114;27;20447;-64
2021/12/28 07:04:43;;;;;;;61.30;3.13;;;;;;;;;;5135984;27;20226;-64
2021/12/28 07:07:11;;;;;;;59.22;3.60;;;;;;;;;;5135811;27;20210;-64
2021/12/28 07:09:39;;;;;;;58.50;3.37;;;;;;;;;;5136094;27;20223;-64
2021/12/28 07:12:06;;;;;;;60.50;3.05;;;;;;;;;;5135848;27;20472;-63
2021/12/28 07:14:35;;;;;;;59.20;3.50;;;;;;;;;;5135931;27;20199;-64
2021/12/28 07:17:02;;;;;;;59.67;3.27;;;;;;;;;;5135806;27;20204;-64
2021/12/28 07:19:29;;;;;;;59.15;3.20;;;;;;;;;;5135912;27;20539;-64
2021/12/28 07:21:57;;;;;;;62.97;4.00;;;;;;;;;;5135947;27;20318;-64
2021/12/28 07:24:24;;;;;;;59.05;3.58;;;;;;;;;;5135774;27;20456;-64
2021/12/28 07:26:52;;;;;;;59.37;3.20;;;;;;;;;;5135744;27;20295;-65
2021/12/28 07:29:19;;;;;;;58.10;2.80;;;;;;;;;;5135413;27;20862;-63
2021/12/28 07:31:48;;;;;;;58.40;3.17;;;;;;;;;;5135539;27;20471;-64
2021/12/28 07:34:15;;;;;;;58.20;3.00;;;;;;;;;;5135557;27;20479;-64
2021/12/28 07:36:42;;;;;;;58.50;3.10;;;;;;;;;;5135457;27;20936;-65
2021/12/28 07:39:09;;;;;;;57.87;3.00;;;;;;;;;;5135220;27;20967;-64
2021/12/28 07:41:36;;;;;;;57.87;2.80;;;;;;;;;;5135363;27;20468;-64
2021/12/28 07:44:04;;;;;;;58.97;3.03;;;;;;;;;;5135294;27;20501;-64
2021/12/28 07:46:31;;;;;;;58.17;2.80;;;;;;;;;;5135546;27;20437;-64
2021/12/28 07:49:00;;;;;;;58.00;2.70;;;;;;;;;;5135034;27;20986;-64
2021/12/28 07:51:27;;;;;;;59.23;2.87;;;;;;;;;;5135256;27;21010;-64
2021/12/28 07:53:54;;;;;;;58.27;2.90;;;;;;;;;;5135272;27;20872;-65
2021/12/28 07:56:22;;;;;;;58.00;2.80;;;;;;;;;;5135267;27;20467;-64
2021/12/28 07:58:49;;;;;;;58.80;3.10;;;;;;;;;;5134450;27;20889;-63
2021/12/28 08:01:17;;;;;;;58.90;2.47;;;;;;;;;;5134966;27;20457;-65
2021/12/28 08:03:44;;;;;;;59.03;2.60;;;;;;;;;;5134725;27;20967;-64
2021/12/28 08:06:12;;;;;;;58.20;2.70;;;;;;;;;;5134940;27;21004;-64
2021/12/28 08:08:39;;;;;;;57.67;2.57;;;;;;;;;;5134703;27;20451;-63
2021/12/28 08:11:07;;;;;;;57.80;2.80;;;;;;;;;;5134739;27;20602;-64
2021/12/28 08:13:34;;;;;;;57.97;2.87;;;;;;;;;;5134754;27;20544;-63
2021/12/28 08:16:01;;;;;;;57.77;2.50;;;;;;;;;;5134987;27;20821;-64
2021/12/28 08:18:28;;;;;;;57.80;2.80;;;;;;;;;;5134488;27;20536;-64
2021/12/28 08:20:55;;;;;;;59.20;2.63;;;;;;;;;;5134792;27;20467;-64
2021/12/28 08:23:24;;;;;;;57.57;2.50;;;;;;;;;;5134627;27;20448;-64
2021/12/28 08:25:51;;;;;;;57.77;2.70;;;;;;;;;;5134454;27;21039;-65
2021/12/28 08:28:18;;;;;;;57.67;2.40;;;;;;;;;;5134413;27;20441;-64
2021/12/28 08:30:46;;;;;;;59.10;2.40;;;;;;;;;;5134538;27;20485;-65
2021/12/28 08:33:13;;;;;;;58.00;2.90;;;;;;;;;;5134506;27;20444;-64
2021/12/28 08:35:40;;;;;;;57.97;3.00;;;;;;;;;;5134354;27;21037;-63
2021/12/28 08:38:08;;;;;;;58.63;2.70;;;;;;;;;;5134020;27;20539;-64
2021/12/28 08:40:37;;;;;;;57.70;2.50;;;;;;;;;;5134180;27;20544;-63
2021/12/28 08:43:04;;;;;;;57.90;2.60;;;;;;;;;;5134378;27;20523;-64
2021/12/28 08:45:32;;;;;;;58.10;2.70;;;;;;;;;;5134227;27;20441;-65
2021/12/28 08:47:59;;;;;;;57.77;2.60;;;;;;;;;;5134057;27;21036;-64
2021/12/28 08:50:27;;;;;;;57.70;2.47;;;;;;;;;;5133866;27;20480;-64
2021/12/28 08:52:55;;;;;;;57.57;2.50;;;;;;;;;;5133844;27;20446;-64
2021/12/28 08:55:23;;;;;;;57.67;2.60;;;;;;;;;;5134217;27;20468;-64
2021/12/28 08:57:52;;;;;;;58.17;2.87;;;;;;;;;;5133867;27;20441;-63
2021/12/28 09:00:21;;;;;;;57.80;2.60;;;;;;;;;;5133867;27;20469;-64
2021/12/28 09:02:48;;;;;;;57.77;2.50;;;;;;;;;;5133860;27;20540;-64
2021/12/28 09:05:15;;;;;;;60.23;2.70;;;;;;;;;;5133616;27;20544;-64
2021/12/28 09:07:42;;;;;;;57.60;2.40;;;;;;;;;;5133278;27;20445;-65
2021/12/28 09:10:10;;;;;;;58.10;2.87;;;;;;;;;;5132997;27;20507;-64
2021/12/28 09:12:37;;;;;;;57.87;2.60;;;;;;;;;;5133733;27;20445;-65
2021/12/28 09:15:06;;;;;;;57.67;2.30;;;;;;;;;;5133538;27;20447;-66
2021/12/28 09:17:34;;;;;;;57.67;2.60;;;;;;;;;;5133364;27;20450;-64
2021/12/28 09:20:02;;;;;;;57.60;2.50;;;;;;;;;;5133352;27;20854;-64
2021/12/28 09:22:29;;;;;;;59.30;2.43;;;;;;;;;;5133631;27;20473;-64
2021/12/28 09:24:56;;;;;;;57.80;2.40;;;;;;;;;;5133448;27;20970;-64
2021/12/28 09:27:23;;;;;;;57.53;2.50;;;;;;;;;;5133205;27;20451;-65
2021/12/28 09:29:50;;;;;;;57.80;2.30;;;;;;;;;;5133236;27;20536;-64
2021/12/28 09:32:20;;;;;;;58.27;2.67;;;;;;;;;;5133297;27;20445;-65
2021/12/28 09:34:48;;;;;;;57.87;2.43;;;;;;;;;;5133154;27;20532;-65
2021/12/28 09:37:15;;;;;;;57.57;2.47;;;;;;;;;;5132914;27;20536;-64
2021/12/28 09:39:42;;;;;;;57.97;2.60;;;;;;;;;;5133371;27;20449;-65
2021/12/28 09:42:10;;;;;;;57.70;2.60;;;;;;;;;;5133179;27;20465;-65
2021/12/28 09:44:37;;;;;;;57.73;2.67;;;;;;;;;;5133128;27;20803;-64
2021/12/28 09:47:05;;;;;;;60.37;2.70;;;;;;;;;;5133062;27;20822;-65
2021/12/28 09:49:34;;;;;;;58.10;3.30;;;;;;;;;;5133150;27;20516;-65
2021/12/28 09:52:05;;;;;;;57.63;2.47;;;;;;;;;;5133024;27;20481;-64
2021/12/28 09:54:33;;;;;;;58.17;2.57;;;;;;;;;;5133127;27;20823;-64
2021/12/28 09:57:00;;;;;;;59.70;2.60;;;;;;;;;;5132892;27;20945;-63
2021/12/28 09:59:28;;;;;;;57.87;2.70;;;;;;;;;;5132656;27;20441;-66
2021/12/28 10:01:55;;;;;;;58.30;2.50;;;;;;;;;;5132809;27;20461;-63
2021/12/28 10:04:22;;;;;;;57.83;2.53;;;;;;;;;;5132824;27;21012;-64
2021/12/28 10:06:51;;;;;;;57.77;2.80;;;;;;;;;;5132788;27;20531;-65
2021/12/28 10:09:20;;;;;;;57.77;2.50;;;;;;;;;;5132786;27;20447;-65
2021/12/28 10:11:49;;;;;;;57.97;2.40;;;;;;;;;;5132769;27;20932;-64
2021/12/28 10:14:17;;;;;;;57.90;2.50;;;;;;;;;;5132571;27;21004;-64
2021/12/28 10:16:45;;;;;;;57.90;2.47;;;;;;;;;;5132749;27;20492;-64
2021/12/28 10:19:32;;;;;;;57.67;2.40;;;;;;;;;;5132312;27;20441;-64
2021/12/28 10:22:19;;;;;;;58.40;2.40;;;;;;;;;;5135373;27;20665;-64
2021/12/28 10:24:46;;;;;;;57.60;2.53;;;;;;;;;;5137272;27;20433;-65
2021/12/28 10:27:14;;;;;;;57.67;2.40;;;;;;;;;;5136586;27;20445;-64
2021/12/28 10:29:42;;;;;;;58.97;2.70;;;;;;;;;;5136843;27;20521;-64
2021/12/28 10:32:23;;;;;;;57.77;2.90;;;;;;;;;;5136578;27;20488;-65
2021/12/28 10:34:51;;;;;;;58.20;2.67;;;;;;;;;;5136733;27;20600;-64
2021/12/28 10:37:20;;;;;;;58.47;3.17;;;;;;;;;;5136675;27;20441;-64
2021/12/28 10:39:49;;;;;;;57.87;2.43;;;;;;;;;;5136751;27;20536;-64
2021/12/28 10:42:34;;;;;;;58.30;2.60;;;;;;;;;;5136647;27;20469;-64
2021/12/28 10:45:01;;;;;;;57.77;2.23;;;;;;;;;;5136583;27;20532;-64
2021/12/28 10:47:29;;;;;;;57.80;2.70;;;;;;;;;;5136076;27;20917;-65
2021/12/28 10:49:57;;;;;;;58.17;2.67;;;;;;;;;;5136599;27;20441;-64
2021/12/28 10:52:30;;;;;;;58.17;2.90;;;;;;;;;;5136396;27;20485;-64
2021/12/28 10:55:12;;;;;;;58.07;2.70;;;;;;;;;;5136351;27;20544;-64
2021/12/28 10:57:40;;;;;;;58.13;3.00;;;;;;;;;;5135914;27;20445;-65
2021/12/28 11:00:22;;;;;;;58.60;3.20;;;;;;;;;;5136112;27;20543;-65
2021/12/28 11:02:49;;;;;;;58.50;2.60;;;;;;;;;;5136279;27;20981;-64
2021/12/28 11:05:31;;;;;;;58.17;2.43;;;;;;;;;;5136102;27;20459;-64
2021/12/28 11:08:01;;;;;;;57.90;2.43;;;;;;;;;;5135966;27;20444;-64
2021/12/28 11:10:28;;;;;;;57.77;2.77;;;;;;;;;;5135834;27;20474;-65
2021/12/28 11:12:56;;;;;;;58.20;2.90;;;;;;;;;;5135962;27;20995;-64
2021/12/28 11:15:23;;;;;;;58.50;2.60;;;;;;;;;;5136173;27;20480;-64
2021/12/28 11:17:53;;;;;;;57.27;2.43;;;;;;;;;;5135719;27;20440;-63
2021/12/28 11:20:30;;;;;;;58.00;2.40;;;;;;;;;;5135895;27;20464;-65
2021/12/28 11:23:12;;;;;;;57.47;2.50;;;;;;;;;;5136368;27;20924;-64
2021/12/28 11:25:39;;;;;;;57.87;2.40;;;;;;;;;;5136299;27;20444;-65
2021/12/28 11:28:13;;;;;;;58.40;2.60;;;;;;;;;;5135632;27;20441;-65
2021/12/28 11:30:41;;;;;;;58.30;2.60;;;;;;;;;;5135642;27;20484;-64
2021/12/28 11:33:08;;;;;;;59.53;3.07;;;;;;;;;;5134813;27;20448;-65
2021/12/28 11:35:36;;;;;;;59.27;2.80;;;;;;;;;;5135491;27;20455;-66
2021/12/28 11:38:03;;;;;;;58.87;2.97;;;;;;;;;;5135450;27;20445;-64
2021/12/28 11:40:31;;;;;;;58.50;2.70;;;;;;;;;;5135617;27;20552;-65
2021/12/28 11:42:59;;;;;;;58.40;3.00;;;;;;;;;;5135265;27;20452;-64
2021/12/28 11:45:26;;;;;;;59.07;3.17;;;;;;;;;;5135423;27;20441;-64
2021/12/28 11:47:53;;;;;;;57.87;2.67;;;;;;;;;;5134945;27;20488;-64
2021/12/28 11:50:20;;;;;;;58.17;2.90;;;;;;;;;;5135409;27;20476;-64
2021/12/28 11:52:48;;;;;;;58.40;2.70;;;;;;;;;;5135591;27;20440;-64
2021/12/28 11:55:15;;;;;;;58.00;2.60;;;;;;;;;;5135305;27;20444;-65
2021/12/28 11:57:51;;;;;;;59.13;2.50;;;;;;;;;;5135006;27;20445;-64
2021/12/28 12:00:20;;;;;;;57.77;2.37;;;;;;;;;;5134934;27;20461;-65
2021/12/28 12:02:49;;;;;;;59.23;2.83;;;;;;;;;;5135201;27;20812;-64
2021/12/28 12:05:17;;;;;;;58.87;3.00;;;;;;;;;;5134971;27;20463;-63
2021/12/28 12:07:44;;;;;;;57.97;2.60;;;;;;;;;;5134722;27;20441;-64
2021/12/28 12:10:32;;;;;;;59.17;2.70;;;;;;;;;;5134762;27;20540;-63
2021/12/28 12:13:03;;;;;;;58.10;2.80;;;;;;;;;;5134753;27;20438;-64
2021/12/28 12:15:36;;;;;;;58.00;2.70;;;;;;;;;;5135083;27;20441;-64
2021/12/28 12:18:03;;;;;;;57.77;2.80;;;;;;;;;;5134691;27;20451;-65
2021/12/28 12:20:33;;;;;;;58.30;2.80;;;;;;;;;;5134752;27;20556;-64
2021/12/28 12:23:14;;;;;;;57.77;3.00;;;;;;;;;;5134706;27;20828;-64
2021/12/28 12:25:47;;;;;;;57.97;2.70;;;;;;;;;;5134602;27;21016;-64
2021/12/28 12:28:16;;;;;;;57.97;2.80;;;;;;;;;;5134580;27;20540;-64
2021/12/28 12:30:48;;;;;;;58.13;2.57;;;;;;;;;;5134276;27;20461;-64
2021/12/28 12:33:15;;;;;;;58.30;2.90;;;;;;;;;;5134505;27;20447;-64
2021/12/28 12:35:48;;;;;;;58.10;2.67;;;;;;;;;;5134424;27;20793;-64
2021/12/28 12:38:36;;;;;;;58.23;2.83;;;;;;;;;;5134370;27;20451;-63
2021/12/28 12:41:05;;;;;;;58.03;2.80;;;;;;;;;;5134754;27;20953;-66
2021/12/28 12:43:40;;;;;;;59.60;3.00;;;;;;;;;;5134271;27;20506;-64
2021/12/28 12:46:09;;;;;;;57.97;2.90;;;;;;;;;;5133318;27;20490;-65
2021/12/28 12:48:57;;;;;;;58.30;3.00;;;;;;;;;;5134179;27;20536;-64
2021/12/28 12:51:31;;;;;;;58.90;3.10;;;;;;;;;;5133914;27;21014;-65
2021/12/28 12:53:59;;;;;;;57.77;2.60;;;;;;;;;;5134109;27;20440;-64
2021/12/28 12:56:28;;;;;;;58.10;2.70;;;;;;;;;;5134026;27;20447;-64
2021/12/28 12:58:58;;;;;;;57.90;2.77;;;;;;;;;;5133639;27;20455;-64
2021/12/28 13:01:53;;;;;;;58.30;2.80;;;;;;;;;;5134027;27;20548;-64
2021/12/28 13:04:35;;;;;;;58.30;2.70;;;;;;;;;;5133795;27;20298;-64
2021/12/28 13:07:03;;;;;;;58.40;2.90;;;;;;;;;;5133532;27;20448;-65
2021/12/28 13:09:31;;;;;;;59.43;3.30;;;;;;;;;;5133545;27;20447;-64
2021/12/28 13:11:59;;;;;;;57.87;2.80;;;;;;;;;;5133713;27;20488;-66
2021/12/28 13:14:28;;;;;;;58.67;3.00;;;;;;;;;;5133672;27;20866;-64
2021/12/28 13:16:56;;;;;;;58.60;3.10;;;;;;;;;;5133681;27;20532;-64
2021/12/28 13:19:24;;;;;;;61.07;2.93;;;;;;;;;;5133381;27;20456;-65
2021/12/28 13:21:55;;;;;;;58.00;3.07;;;;;;;;;;5133451;27;20552;-65
2021/12/28 13:24:23;;;;;;;58.57;3.00;;;;;;;;;;5133657;27;20498;-65
2021/12/28 13:26:51;;;;;;;58.60;3.10;;;;;;;;;;5133570;27;20448;-65
2021/12/28 13:29:24;;;;;;;58.20;2.80;;;;;;;;;;5133097;27;21012;-64
2021/12/28 13:31:52;;;;;;;58.27;3.20;;;;;;;;;;5133594;27;20749;-65
2021/12/28 13:34:19;;;;;;;57.97;2.60;;;;;;;;;;5133206;27;20449;-65
2021/12/28 13:36:50;;;;;;;57.70;2.90;;;;;;;;;;5133506;27;20828;-64
2021/12/28 13:39:17;;;;;;;57.90;2.70;;;;;;;;;;5133137;27;20819;-65
2021/12/28 13:41:49;;;;;;;59.47;2.70;;;;;;;;;;5133061;27;20965;-65
2021/12/28 13:44:16;;;;;;;57.90;2.60;;;;;;;;;;5133123;27;20464;-64
2021/12/28 13:46:43;;;;;;;58.60;2.80;;;;;;;;;;5133003;27;20905;-66
2021/12/28 13:49:14;;;;;;;58.73;3.10;;;;;;;;;;5132734;27;20536;-65
2021/12/28 13:51:42;;;;;;;58.97;2.80;;;;;;;;;;5132964;27;20996;-65
2021/12/28 13:54:10;;;;;;;58.77;2.90;;;;;;;;;;5132995;27;20441;-66
2021/12/28 13:56:38;;;;;;;59.90;2.80;;;;;;;;;;5132624;27;20441;-64
2021/12/28 13:59:06;;;;;;;58.67;2.73;;;;;;;;;;5132494;27;20453;-65
2021/12/28 14:01:38;;;;;;;58.30;2.70;;;;;;;;;;5133032;27;20463;-66
2021/12/28 14:04:06;;;;;;;60.00;3.40;;;;;;;;;;5132723;27;20461;-65
2021/12/28 14:06:37;;;;;;;58.90;2.70;;;;;;;;;;5132848;27;20445;-65
2021/12/28 14:09:05;;;;;;;59.40;3.00;;;;;;;;;;5133154;27;20449;-65
2021/12/28 14:11:33;;;;;;;58.07;2.70;;;;;;;;;;5132653;27;20487;-64
2021/12/28 14:14:00;;;;;;;58.80;2.93;;;;;;;;;;5132923;27;20536;-65
2021/12/28 14:16:27;;;;;;;60.20;3.20;;;;;;;;;;5132929;27;20527;-63
2021/12/28 14:18:55;;;;;;;58.17;2.80;;;;;;;;;;5132625;27;20447;-64
2021/12/28 14:21:26;;;;;;;58.17;2.80;;;;;;;;;;5132737;27;20480;-66
2021/12/28 14:23:57;;;;;;;58.97;2.70;;;;;;;;;;5132648;27;20449;-63
2021/12/28 14:26:25;;;;;;;58.47;2.90;;;;;;;;;;5132910;27;20441;-64
2021/12/28 14:28:56;;;;;;;58.47;2.53;;;;;;;;;;5132506;27;20445;-65
2021/12/28 14:31:25;;;;;;;68.30;3.33;;;;;;;;;;5132613;27;20465;-63
2021/12/28 14:33:53;;;;;;;62.80;3.10;;;;;;;;;;5132507;27;20455;-64
2021/12/28 14:36:22;;;;;;;58.20;2.80;;;;;;;;;;5132634;27;20441;-65
2021/12/28 14:38:49;;;;;;;60.40;2.80;;;;;;;;;;5132238;27;20437;-64